Time;durP1;ratioP1;P1;durP2;ratioP2;P2;SDS_P1;SDS_P2;PMS_P1;PMS_P2;Temp;Humidity;BMP_temperature;BMP_pressure;BME280_temperature;BME280_humidity;BME280_pressure;Samples;Min_cycle;Max_cycle;Signal;HPM_P1;HPM_P2
2023/10/28 00:02:24;;;;;;;28.03;12.83;;;;;;;7.28;100.00;98163.03;4222815;28;20230;-67
2023/10/28 00:04:51;;;;;;;30.83;13.57;;;;;;;7.19;100.00;98164.97;4227129;28;22820;-70
2023/10/28 00:07:18;;;;;;;27.77;13.53;;;;;;;6.92;100.00;98156.44;4223930;28;20291;-67
2023/10/28 00:09:44;;;;;;;27.30;12.80;;;;;;;6.77;100.00;98164.47;4219735;28;22481;-67
2023/10/28 00:12:13;;;;;;;29.07;13.30;;;;;;;6.66;100.00;98170.22;4222217;28;20259;-67
2023/10/28 00:14:40;;;;;;;28.57;13.10;;;;;;;6.64;100.00;98169.59;4228643;28;20519;-67
2023/10/28 00:17:07;;;;;;;25.93;12.50;;;;;;;6.68;100.00;98172.75;4224180;28;20296;-68
2023/10/28 00:19:34;;;;;;;26.73;12.97;;;;;;;6.70;100.00;98171.56;4228675;28;21678;-69
2023/10/28 00:22:00;;;;;;;26.83;12.40;;;;;;;6.82;100.00;98180.06;4216294;28;20333;-68
2023/10/28 00:24:27;;;;;;;26.33;12.23;;;;;;;6.63;100.00;98178.69;4241066;28;20231;-68
2023/10/28 00:26:54;;;;;;;24.33;12.10;;;;;;;6.57;100.00;98185.59;4224019;28;20345;-66
2023/10/28 00:29:20;;;;;;;27.10;13.10;;;;;;;6.77;100.00;98185.13;4222146;28;20236;-66
2023/10/28 00:31:47;;;;;;;27.67;12.73;;;;;;;6.66;100.00;98195.28;4244325;28;20554;-66
2023/10/28 00:34:15;;;;;;;30.07;13.50;;;;;;;6.69;100.00;98198.63;4228900;28;20353;-67
2023/10/28 00:36:41;;;;;;;31.73;15.27;;;;;;;6.58;100.00;98203.41;4226910;28;20917;-66
2023/10/28 00:39:10;;;;;;;33.00;16.27;;;;;;;6.64;100.00;98204.53;4228146;28;20517;-65
2023/10/28 00:41:37;;;;;;;32.67;16.17;;;;;;;6.67;100.00;98212.25;4231597;28;20231;-67
2023/10/28 00:44:04;;;;;;;40.13;17.53;;;;;;;6.43;100.00;98213.22;4222450;28;20227;-66
2023/10/28 00:46:31;;;;;;;39.50;18.83;;;;;;;6.25;100.00;98221.53;4214595;28;20314;-66
2023/10/28 00:48:58;;;;;;;39.87;18.80;;;;;;;6.31;100.00;98210.09;4221085;28;20389;-64
2023/10/28 00:51:25;;;;;;;39.80;18.03;;;;;;;6.36;100.00;98215.75;4223529;28;20227;-66
2023/10/28 00:53:52;;;;;;;43.23;18.90;;;;;;;6.37;100.00;98214.75;4228517;28;20246;-66
2023/10/28 00:56:19;;;;;;;37.87;18.83;;;;;;;6.28;100.00;98216.66;4223799;28;21124;-66
2023/10/28 00:58:46;;;;;;;33.57;17.43;;;;;;;6.39;100.00;98220.78;4224766;28;22940;-67
2023/10/28 01:01:14;;;;;;;37.30;18.33;;;;;;;6.34;100.00;98228.56;4227069;28;20235;-66
2023/10/28 01:03:41;;;;;;;34.50;17.53;;;;;;;6.38;100.00;98227.19;4218039;28;20234;-66
2023/10/28 01:06:10;;;;;;;30.73;16.27;;;;;;;6.13;100.00;98232.66;4225841;28;20236;-67
2023/10/28 01:08:37;;;;;;;29.03;15.57;;;;;;;6.07;100.00;98229.84;4216337;28;20229;-66
2023/10/28 01:11:04;;;;;;;26.87;14.27;;;;;;;6.05;100.00;98238.03;4222103;28;22440;-64
2023/10/28 01:13:34;;;;;;;24.13;12.53;;;;;;;5.99;100.00;98236.06;4224457;28;23508;-67
2023/10/28 01:16:01;;;;;;;25.53;13.37;;;;;;;6.07;99.97;98238.72;4220765;28;20303;-67
2023/10/28 01:18:28;;;;;;;20.40;11.63;;;;;;;6.10;99.13;98238.38;4221501;28;20336;-66
2023/10/28 01:20:54;;;;;;;19.13;11.13;;;;;;;5.96;99.40;98247.94;4235432;28;20226;-66
2023/10/28 01:23:21;;;;;;;21.90;11.70;;;;;;;5.95;98.72;98254.31;4218781;28;20246;-67
2023/10/28 01:25:47;;;;;;;19.03;11.07;;;;;;;6.13;98.42;98245.25;4220068;28;20240;-66
2023/10/28 01:28:15;;;;;;;23.57;12.43;;;;;;;6.15;97.86;98241.38;4226962;28;20270;-66
2023/10/28 01:30:42;;;;;;;17.97;10.60;;;;;;;6.27;96.56;98249.06;4225992;28;20569;-65
2023/10/28 01:33:08;;;;;;;17.33;9.97;;;;;;;5.92;97.21;98243.94;4220711;28;20260;-68
2023/10/28 01:35:35;;;;;;;22.73;10.53;;;;;;;6.11;97.79;98250.81;4218742;28;20230;-68
2023/10/28 01:38:03;;;;;;;16.20;9.90;;;;;;;6.05;98.38;98256.84;4220088;28;20313;-69
2023/10/28 01:40:31;;;;;;;19.07;10.50;;;;;;;5.86;99.24;98256.19;4228312;28;21091;-67
2023/10/28 01:42:58;;;;;;;17.60;10.30;;;;;;;5.79;100.00;98249.84;4217747;28;20236;-66
2023/10/28 01:45:25;;;;;;;22.50;9.83;;;;;;;5.91;99.69;98252.16;4216412;28;21853;-69
2023/10/28 01:47:52;;;;;;;15.20;9.57;;;;;;;6.15;97.82;98251.31;4223924;28;22530;-68
2023/10/28 01:50:21;;;;;;;18.20;9.53;;;;;;;6.19;98.01;98253.44;4222446;28;20248;-65
2023/10/28 01:52:47;;;;;;;15.93;9.13;;;;;;;5.93;98.96;98255.50;4203599;28;20240;-65
2023/10/28 01:55:14;;;;;;;15.97;9.37;;;;;;;6.14;97.96;98250.44;4223237;28;23195;-68
2023/10/28 01:57:41;;;;;;;13.80;8.40;;;;;;;5.81;99.67;98252.34;4222837;28;20236;-65
2023/10/28 02:00:12;;;;;;;14.77;8.83;;;;;;;5.86;98.96;98264.25;4224144;28;22196;-68
2023/10/28 02:02:40;;;;;;;16.30;9.03;;;;;;;5.87;99.41;98267.78;4222989;28;20294;-66
2023/10/28 02:05:08;;;;;;;13.40;8.00;;;;;;;5.76;98.30;98270.81;4230492;28;20232;-67
2023/10/28 02:07:35;;;;;;;13.00;7.57;;;;;;;5.71;99.33;98277.53;4223271;28;20340;-69
2023/10/28 02:10:02;;;;;;;14.30;7.50;;;;;;;5.64;99.35;98273.84;4228374;28;20235;-66
2023/10/28 02:12:34;;;;;;;12.90;6.60;;;;;;;5.63;98.89;98271.34;4226964;28;20310;-67
2023/10/28 02:15:06;;;;;;;14.27;6.50;;;;;;;5.71;98.34;98277.53;4242086;28;20323;-67
2023/10/28 02:17:35;;;;;;;13.10;5.50;;;;;;;5.61;97.94;98267.97;4240381;28;20542;-66
2023/10/28 02:20:04;;;;;;;16.47;6.07;;;;;;;5.90;96.82;98283.56;4236896;28;20241;-67
2023/10/28 02:22:31;;;;;;;10.67;5.17;;;;;;;5.74;96.59;98273.66;4241911;28;22230;-68
2023/10/28 02:24:58;;;;;;;10.30;5.27;;;;;;;5.82;96.55;98289.75;4222492;28;22142;-65
2023/10/28 02:27:25;;;;;;;7.67;4.60;;;;;;;5.70;95.99;98283.06;4224098;28;22634;-66
2023/10/28 02:29:51;;;;;;;10.53;5.23;;;;;;;5.49;97.27;98289.81;4234796;28;20235;-68
2023/10/28 02:32:18;;;;;;;8.10;4.57;;;;;;;5.47;97.61;98286.44;4224559;28;20278;-67
2023/10/28 02:34:45;;;;;;;8.23;4.50;;;;;;;5.55;97.43;98288.31;4236186;28;20489;-67
2023/10/28 02:37:14;;;;;;;10.07;4.57;;;;;;;5.57;96.47;98288.94;4235007;28;21730;-66
2023/10/28 02:39:41;;;;;;;7.37;4.33;;;;;;;5.55;95.15;98293.66;4231327;28;23423;-65
2023/10/28 02:42:07;;;;;;;8.23;4.10;;;;;;;5.55;95.29;98301.72;4224857;28;21237;-67
2023/10/28 02:44:34;;;;;;;7.17;4.20;;;;;;;5.63;95.05;98309.75;4223907;28;21554;-66
2023/10/28 02:47:00;;;;;;;6.90;4.00;;;;;;;5.63;95.62;98304.38;4230261;28;22191;-67
2023/10/28 02:49:27;;;;;;;8.13;4.40;;;;;;;5.52;96.03;98310.09;4221675;28;20394;-67
2023/10/28 02:51:54;;;;;;;11.13;4.80;;;;;;;5.60;95.82;98309.25;4225319;28;20281;-66
2023/10/28 02:54:21;;;;;;;12.33;4.60;;;;;;;5.58;95.81;98314.78;4204130;28;20269;-66
2023/10/28 02:56:47;;;;;;;7.33;4.00;;;;;;;5.53;96.04;98311.78;4222833;28;20500;-67
2023/10/28 02:59:14;;;;;;;6.10;3.83;;;;;;;5.75;95.36;98320.97;4234847;28;20571;-66
2023/10/28 03:01:40;;;;;;;7.90;4.47;;;;;;;5.48;95.71;98323.00;4226991;28;20227;-65
2023/10/28 03:04:07;;;;;;;7.37;3.80;;;;;;;5.44;96.38;98326.19;4236344;28;20243;-67
2023/10/28 03:06:33;;;;;;;6.50;3.80;;;;;;;5.61;95.39;98327.03;4226732;28;20336;-65
2023/10/28 03:09:00;;;;;;;8.03;3.83;;;;;;;5.47;96.04;98334.75;4228002;28;21130;-66
2023/10/28 03:11:27;;;;;;;7.53;4.10;;;;;;;5.52;95.28;98343.13;4234152;28;20330;-69
2023/10/28 03:13:54;;;;;;;5.73;3.57;;;;;;;5.39;96.33;98343.63;4222372;28;20244;-68
2023/10/28 03:16:21;;;;;;;6.37;3.60;;;;;;;5.53;95.33;98341.28;4226407;28;20249;-68
2023/10/28 03:18:48;;;;;;;8.13;4.00;;;;;;;5.47;95.09;98344.66;4230419;28;20252;-67
2023/10/28 03:21:15;;;;;;;5.50;3.57;;;;;;;5.36;95.21;98343.97;4220559;28;20434;-69
2023/10/28 03:23:42;;;;;;;5.57;3.20;;;;;;;5.45;93.77;98344.78;4225264;28;20238;-66
2023/10/28 03:26:09;;;;;;;7.23;3.27;;;;;;;5.66;92.39;98338.13;4231385;28;20296;-67
2023/10/28 03:28:36;;;;;;;5.80;3.40;;;;;;;5.49;93.40;98347.97;4231680;28;20227;-51
2023/10/28 03:31:09;;;;;;;5.97;3.40;;;;;;;5.38;93.84;98343.78;4231374;28;20222;-76
2023/10/28 03:33:37;;;;;;;4.90;2.73;;;;;;;5.26;95.47;98347.78;4220471;28;20410;-75
2023/10/28 03:36:05;;;;;;;5.37;3.17;;;;;;;5.26;95.57;98351.31;4220549;28;20240;-76
2023/10/28 03:38:35;;;;;;;5.60;3.37;;;;;;;5.25;95.50;98352.31;4214952;28;20986;-76
2023/10/28 03:41:08;;;;;;;8.07;3.03;;;;;;;5.38;95.63;98360.75;4227049;28;20228;-76
2023/10/28 03:43:36;;;;;;;7.47;3.30;;;;;;;5.30;96.11;98362.53;4225134;28;20366;-76
2023/10/28 03:46:04;;;;;;;5.80;3.53;;;;;;;5.10;97.70;98360.16;4222666;28;21973;-75
2023/10/28 03:48:31;;;;;;;8.30;3.83;;;;;;;5.02;97.92;98374.38;4229828;28;20254;-75
2023/10/28 03:51:00;;;;;;;5.93;3.57;;;;;;;5.11;97.25;98369.91;4231427;28;20241;-74
2023/10/28 03:53:27;;;;;;;6.57;3.87;;;;;;;4.99;98.20;98385.44;4226333;28;21035;-76
2023/10/28 03:55:54;;;;;;;6.07;3.50;;;;;;;5.07;96.98;98376.56;4227601;28;20238;-76
2023/10/28 03:58:21;;;;;;;7.10;4.33;;;;;;;5.04;96.74;98379.59;4227192;28;20703;-77
2023/10/28 04:00:53;;;;;;;7.73;4.20;;;;;;;5.00;96.69;98386.28;4229771;28;20522;-78
2023/10/28 04:03:23;;;;;;;8.37;4.10;;;;;;;5.20;95.25;98392.22;4224073;28;20238;-80
2023/10/28 04:05:51;;;;;;;5.83;3.70;;;;;;;5.01;96.08;98396.84;4230805;28;20267;-79
2023/10/28 04:08:17;;;;;;;7.63;3.57;;;;;;;5.02;96.07;98393.16;4236918;28;20571;-78
2023/10/28 04:10:46;;;;;;;5.33;3.37;;;;;;;4.91;96.48;98391.59;4230043;28;22530;-80
2023/10/28 04:13:13;;;;;;;5.93;3.47;;;;;;;5.10;95.84;98388.84;4237028;28;20283;-80
2023/10/28 04:15:40;;;;;;;8.17;3.87;;;;;;;5.08;96.23;98384.47;4238616;28;20305;-80
2023/10/28 04:18:07;;;;;;;5.60;3.50;;;;;;;5.08;95.97;98388.97;4240083;28;20235;-79
2023/10/28 04:20:37;;;;;;;5.53;3.00;;;;;;;5.13;95.86;98386.69;4233726;28;21552;-77
2023/10/28 04:23:05;;;;;;;8.47;3.60;;;;;;;5.11;95.46;98393.19;4228445;28;20941;-78
2023/10/28 04:25:33;;;;;;;8.23;3.60;;;;;;;5.11;95.94;98390.50;4219261;28;22336;-74
2023/10/28 04:28:00;;;;;;;7.23;3.50;;;;;;;5.08;96.04;98389.84;4228573;28;21157;-78
2023/10/28 04:30:26;;;;;;;6.10;3.40;;;;;;;5.11;95.49;98391.34;4230561;28;20235;-76
2023/10/28 04:32:53;;;;;;;7.67;4.10;;;;;;;5.07;95.73;98400.72;4218034;28;23335;-75
2023/10/28 04:35:20;;;;;;;7.90;3.97;;;;;;;5.10;96.07;98396.88;4226154;28;20334;-79
2023/10/28 04:37:54;;;;;;;6.07;3.43;;;;;;;5.13;95.49;98400.09;4227988;28;20242;-77
2023/10/28 04:40:21;;;;;;;6.37;3.73;;;;;;;5.16;95.62;98399.75;4228732;28;23979;-78
2023/10/28 04:42:48;;;;;;;9.13;3.30;;;;;;;5.17;94.92;98401.44;4225282;28;20277;-81
2023/10/28 04:45:14;;;;;;;5.97;3.53;;;;;;;5.10;94.63;98402.25;4240069;28;23614;-77
2023/10/28 04:47:42;;;;;;;7.13;3.40;;;;;;;5.13;94.79;98404.59;4237567;28;20336;-78
2023/10/28 04:50:09;;;;;;;6.33;3.57;;;;;;;5.25;94.19;98422.06;4238973;28;20235;-77
2023/10/28 04:52:36;;;;;;;8.83;3.47;;;;;;;5.02;95.00;98428.00;4234006;28;20238;-79
2023/10/28 04:55:02;;;;;;;8.90;3.97;;;;;;;5.00;95.89;98442.59;4248000;28;20243;-82
2023/10/28 04:57:31;;;;;;;8.67;3.77;;;;;;;5.05;95.24;98424.19;4238632;28;20288;-75
2023/10/28 04:59:58;;;;;;;6.30;3.83;;;;;;;4.97;95.82;98432.19;4232040;28;25384;-79
2023/10/28 05:02:24;;;;;;;7.27;3.90;;;;;;;4.97;95.94;98437.56;4234034;28;20282;-75
2023/10/28 05:04:51;;;;;;;6.47;3.70;;;;;;;4.96;96.39;98444.75;4236283;28;20514;-77
2023/10/28 05:07:17;;;;;;;8.87;3.90;;;;;;;5.06;96.37;98450.00;4220382;28;20583;-80
2023/10/28 05:09:44;;;;;;;7.30;4.10;;;;;;;5.12;96.36;98452.03;4224295;28;20246;-76
2023/10/28 05:12:11;;;;;;;9.10;4.20;;;;;;;5.07;97.38;98459.72;4245023;28;22612;-74
2023/10/28 05:14:37;;;;;;;7.33;3.90;;;;;;;5.02;98.04;98460.19;4228339;28;20614;-74
2023/10/28 05:17:05;;;;;;;10.40;4.27;;;;;;;5.04;98.40;98463.56;4230562;28;20227;-73
2023/10/28 05:19:32;;;;;;;8.17;4.23;;;;;;;5.06;98.95;98469.59;4223408;28;20874;-73
2023/10/28 05:22:01;;;;;;;9.27;4.40;;;;;;;5.16;99.19;98477.53;4224818;28;20337;-72
2023/10/28 05:24:29;;;;;;;8.00;4.17;;;;;;;5.18;98.97;98480.91;4226994;28;20639;-71
2023/10/28 05:26:57;;;;;;;8.43;4.83;;;;;;;5.16;99.22;98474.00;4221867;28;20278;-75
2023/10/28 05:29:24;;;;;;;8.47;4.20;;;;;;;5.32;99.00;98479.44;4242703;28;20686;-75
2023/10/28 05:31:50;;;;;;;7.43;4.33;;;;;;;5.24;98.39;98476.75;4224195;28;20286;-76
2023/10/28 05:34:19;;;;;;;10.30;5.60;;;;;;;5.15;99.37;98480.38;4231472;28;20966;-74
2023/10/28 05:36:45;;;;;;;9.70;5.20;;;;;;;5.20;99.22;98489.63;4232136;28;20231;-73
2023/10/28 05:39:12;;;;;;;10.77;5.57;;;;;;;5.23;98.85;98489.28;4229376;28;25624;-75
2023/10/28 05:41:39;;;;;;;8.33;5.03;;;;;;;5.21;99.48;98501.19;4235852;28;21534;-71
2023/10/28 05:44:05;;;;;;;10.13;5.90;;;;;;;5.14;99.98;98492.09;4243660;28;22327;-76
2023/10/28 05:46:32;;;;;;;9.13;5.10;;;;;;;5.19;99.45;98496.00;4226164;28;20313;-74
2023/10/28 05:49:00;;;;;;;8.80;5.10;;;;;;;5.20;99.60;98496.81;4232082;28;20249;-73
2023/10/28 05:51:27;;;;;;;10.37;5.87;;;;;;;5.16;100.00;98501.66;4231278;28;20236;-71
2023/10/28 05:53:54;;;;;;;9.43;5.13;;;;;;;5.31;99.76;98506.41;4229335;28;20409;-71
2023/10/28 05:56:21;;;;;;;9.93;5.63;;;;;;;5.41;98.71;98499.09;4231684;28;20238;-71
2023/10/28 05:58:48;;;;;;;9.80;4.97;;;;;;;5.26;98.28;98511.44;4236424;28;22248;-73
2023/10/28 06:01:15;;;;;;;10.23;4.97;;;;;;;5.34;98.87;98514.16;4227076;28;20345;-75
2023/10/28 06:03:41;;;;;;;11.33;4.97;;;;;;;5.44;97.61;98504.13;4234878;28;20227;-77
2023/10/28 06:06:08;;;;;;;13.73;5.47;;;;;;;5.28;98.96;98510.28;4236855;28;20227;-74
2023/10/28 06:08:35;;;;;;;10.90;5.37;;;;;;;5.30;99.13;98516.31;4243810;28;20322;-72
2023/10/28 06:11:02;;;;;;;11.43;5.80;;;;;;;5.44;98.29;98516.72;4234501;28;20226;-73
2023/10/28 06:13:29;;;;;;;9.77;5.57;;;;;;;5.53;97.67;98523.78;4226501;28;20311;-72
2023/10/28 06:15:56;;;;;;;8.63;5.27;;;;;;;5.58;97.34;98526.81;4242617;28;20293;-70
2023/10/28 06:18:23;;;;;;;7.70;4.87;;;;;;;5.76;96.86;98531.25;4237298;28;20302;-74
2023/10/28 06:20:50;;;;;;;11.80;5.67;;;;;;;5.60;97.39;98540.94;4231224;28;20325;-74
2023/10/28 06:23:16;;;;;;;11.63;5.73;;;;;;;5.57;97.92;98541.25;4241869;28;20872;-66
2023/10/28 06:25:43;;;;;;;10.60;5.20;;;;;;;5.66;97.13;98542.97;4217546;28;22406;-67
2023/10/28 06:28:10;;;;;;;10.60;5.50;;;;;;;5.66;97.38;98545.63;4237337;28;21158;-67
2023/10/28 06:30:48;;;;;;;11.80;5.70;;;;;;;5.65;96.89;98549.31;4230544;28;20231;-66
2023/10/28 06:33:16;;;;;;;8.30;5.23;;;;;;;5.70;97.36;98551.53;4227780;28;20231;-65
2023/10/28 06:35:44;;;;;;;10.77;5.67;;;;;;;5.66;97.57;98555.56;4233524;28;20320;-68
2023/10/28 06:38:10;;;;;;;12.90;6.47;;;;;;;5.73;97.01;98567.31;4230841;28;20248;-70
2023/10/28 06:40:37;;;;;;;14.20;5.97;;;;;;;5.72;96.92;98561.09;4232704;28;20397;-67
2023/10/28 06:43:05;;;;;;;9.67;5.07;;;;;;;5.90;96.68;98561.97;4230289;28;20418;-66
2023/10/28 06:45:32;;;;;;;12.67;5.90;;;;;;;5.91;96.61;98558.28;4227486;28;20393;-68
2023/10/28 06:47:59;;;;;;;11.37;5.50;;;;;;;5.89;96.37;98569.22;4228352;28;20316;-66
2023/10/28 06:50:26;;;;;;;9.33;5.00;;;;;;;6.13;95.93;98570.31;4226113;28;20608;-68
2023/10/28 06:52:54;;;;;;;11.23;6.03;;;;;;;6.10;95.98;98573.31;4239421;28;22024;-68
2023/10/28 06:55:22;;;;;;;13.57;5.07;;;;;;;6.01;95.05;98578.66;4244548;28;21256;-67
2023/10/28 06:57:49;;;;;;;9.10;4.70;;;;;;;6.10;94.66;98579.53;4232991;28;20228;-68
2023/10/28 07:00:16;;;;;;;8.77;4.63;;;;;;;6.07;94.59;98587.09;4243540;28;20234;-67
2023/10/28 07:02:43;;;;;;;8.33;4.40;;;;;;;6.38;93.77;98583.78;4234688;28;20227;-66
2023/10/28 07:05:10;;;;;;;8.67;4.30;;;;;;;6.56;91.31;98583.63;4235883;28;21075;-68
2023/10/28 07:07:38;;;;;;;9.07;4.50;;;;;;;6.63;90.77;98585.47;4239823;28;20228;-69
2023/10/28 07:10:06;;;;;;;6.37;3.90;;;;;;;6.35;90.93;98587.63;4233392;28;21353;-67
2023/10/28 07:12:33;;;;;;;7.23;4.13;;;;;;;6.65;90.15;98598.72;4225786;28;20250;-69
2023/10/28 07:15:00;;;;;;;9.67;4.27;;;;;;;6.93;89.31;98591.16;4229546;28;20235;-68
2023/10/28 07:17:26;;;;;;;6.80;3.80;;;;;;;6.76;88.81;98597.59;4242062;28;20223;-68
2023/10/28 07:19:53;;;;;;;6.53;4.00;;;;;;;7.43;85.96;98599.16;4231555;28;20431;-67
2023/10/28 07:22:21;;;;;;;7.93;3.90;;;;;;;7.17;85.68;98588.63;4248721;28;25784;-67
2023/10/28 07:24:47;;;;;;;8.57;4.30;;;;;;;7.28;85.80;98596.31;4248803;28;22074;-67
2023/10/28 07:27:15;;;;;;;6.60;3.43;;;;;;;7.52;83.86;98591.91;4245507;28;20513;-67
2023/10/28 07:29:43;;;;;;;8.53;4.00;;;;;;;7.43;84.36;98599.16;4244352;28;21619;-69
2023/10/28 07:32:10;;;;;;;6.33;3.37;;;;;;;7.40;84.04;98608.41;4222771;28;20235;-68
2023/10/28 07:34:37;;;;;;;5.70;3.40;;;;;;;7.17;85.09;98610.16;4249688;28;21810;-72
2023/10/28 07:37:04;;;;;;;5.78;3.58;;;;;;;7.01;85.57;98611.84;4228261;28;20398;-73
2023/10/28 07:39:31;;;;;;;5.80;3.60;;;;;;;7.11;86.06;98609.81;4217686;28;20348;-68
2023/10/28 07:41:58;;;;;;;7.43;3.27;;;;;;;7.50;84.33;98624.38;4231513;28;20254;-68
2023/10/28 07:44:25;;;;;;;7.37;3.20;;;;;;;7.28;84.93;98629.47;4270796;28;21352;-69
2023/10/28 07:46:52;;;;;;;5.33;3.20;;;;;;;7.30;84.77;98627.44;4233658;28;20346;-70
2023/10/28 07:49:19;;;;;;;7.40;3.90;;;;;;;7.14;84.79;98631.00;4229090;28;20250;-66
2023/10/28 07:51:46;;;;;;;10.70;3.77;;;;;;;7.20;85.94;98629.50;4237026;28;22367;-70
2023/10/28 07:54:14;;;;;;;6.60;3.67;;;;;;;7.36;84.17;98631.31;4229390;28;20231;-68
2023/10/28 07:56:42;;;;;;;10.57;4.10;;;;;;;7.33;84.05;98628.94;4228746;28;23029;-66
2023/10/28 07:59:09;;;;;;;10.70;3.73;;;;;;;7.30;85.19;98634.69;4238172;28;20239;-72
2023/10/28 08:01:39;;;;;;;7.73;4.03;;;;;;;7.57;83.64;98638.84;4239651;28;21704;-69
2023/10/28 08:04:07;;;;;;;6.67;3.00;;;;;;;7.71;84.15;98641.81;4255205;28;20362;-70
2023/10/28 08:06:34;;;;;;;5.57;2.70;;;;;;;8.07;80.85;98647.59;4235143;28;20227;-71
2023/10/28 08:09:05;;;;;;;4.90;2.40;;;;;;;8.22;79.71;98652.22;4227617;28;20262;-68
2023/10/28 08:11:33;;;;;;;4.13;2.43;;;;;;;7.67;80.69;98652.09;4251216;28;20295;-69
2023/10/28 08:14:00;;;;;;;4.97;2.80;;;;;;;7.42;82.08;98656.72;4237718;28;21766;-70
2023/10/28 08:16:27;;;;;;;4.43;2.47;;;;;;;7.61;82.46;98663.56;4252378;28;20283;-70
2023/10/28 08:18:55;;;;;;;6.03;3.10;;;;;;;8.03;80.61;98672.34;4239109;28;22054;-70
2023/10/28 08:21:22;;;;;;;5.67;2.50;;;;;;;7.80;81.15;98675.81;4240962;28;20231;-72
2023/10/28 08:23:49;;;;;;;5.77;2.60;;;;;;;8.15;79.10;98679.03;4261416;28;20413;-71
2023/10/28 08:26:18;;;;;;;4.57;2.97;;;;;;;7.57;81.95;98683.75;4250474;28;20242;-71
2023/10/28 08:28:50;;;;;;;9.20;3.10;;;;;;;7.72;81.63;98684.72;4244305;28;20250;-72
2023/10/28 08:31:17;;;;;;;7.37;3.13;;;;;;;7.83;81.88;98680.00;4235073;28;20325;-72
2023/10/28 08:33:44;;;;;;;4.30;2.53;;;;;;;8.23;79.85;98676.31;4244098;28;20236;-70
2023/10/28 08:36:11;;;;;;;4.90;2.90;;;;;;;7.90;80.88;98689.91;4236073;28;20311;-71
2023/10/28 08:38:38;;;;;;;5.13;2.77;;;;;;;7.72;81.05;98689.28;4243191;28;20251;-71
2023/10/28 08:41:05;;;;;;;4.53;2.60;;;;;;;7.74;81.64;98690.78;4263094;28;20246;-69
2023/10/28 08:43:36;;;;;;;5.87;2.60;;;;;;;7.64;80.55;98694.69;4235363;28;20239;-68
2023/10/28 08:46:04;;;;;;;5.70;2.83;;;;;;;7.92;80.27;98701.34;4237730;28;20420;-74
2023/10/28 08:48:33;;;;;;;3.77;2.73;;;;;;;7.84;80.33;98706.75;4233415;28;21185;-69
2023/10/28 08:51:00;;;;;;;5.50;2.53;;;;;;;7.95;80.57;98710.09;4231344;28;20239;-71
2023/10/28 08:53:28;;;;;;;4.90;2.60;;;;;;;8.23;79.34;98703.25;4227361;28;21732;-67
2023/10/28 08:55:57;;;;;;;6.43;2.57;;;;;;;8.20;80.49;98703.59;4226262;28;22277;-70
2023/10/28 08:58:25;;;;;;;7.47;2.90;;;;;;;8.76;78.04;98712.63;4236382;28;20976;-69
2023/10/28 09:00:58;;;;;;;8.33;2.63;;;;;;;8.50;78.35;98711.09;4237499;28;21287;-70
2023/10/28 09:03:26;;;;;;;3.73;2.67;;;;;;;8.37;78.33;98722.41;4255661;28;20227;-72
2023/10/28 09:05:54;;;;;;;5.00;2.50;;;;;;;8.45;79.03;98718.84;4227796;28;20234;-69
2023/10/28 09:08:21;;;;;;;2.93;1.87;;;;;;;8.56;78.41;98722.03;4237573;28;20912;-68
2023/10/28 09:10:48;;;;;;;3.80;2.00;;;;;;;8.61;77.44;98723.31;4235567;28;22815;-69
2023/10/28 09:13:15;;;;;;;5.70;2.40;;;;;;;8.68;77.23;98730.56;4237215;28;20231;-73
2023/10/28 09:15:42;;;;;;;5.30;1.97;;;;;;;8.14;77.51;98723.16;4223197;28;21430;-71
2023/10/28 09:18:09;;;;;;;3.43;1.93;;;;;;;8.43;77.76;98729.78;4242524;28;20638;-69
2023/10/28 09:20:41;;;;;;;3.13;1.73;;;;;;;8.16;77.67;98722.97;4257752;28;20279;-69
2023/10/28 09:23:08;;;;;;;2.90;1.70;;;;;;;8.67;76.29;98736.09;4246926;28;20338;-73
2023/10/28 09:25:38;;;;;;;9.93;2.10;;;;;;;8.52;76.23;98736.03;4245959;28;20256;-68
2023/10/28 09:28:13;;;;;;;3.13;1.90;;;;;;;8.78;75.68;98742.94;4228098;28;21744;-70
2023/10/28 09:30:46;;;;;;;3.37;2.00;;;;;;;8.63;76.49;98745.56;4232279;28;20290;-70
2023/10/28 09:33:15;;;;;;;4.13;1.73;;;;;;;8.79;75.89;98737.41;4230120;28;20415;-73
2023/10/28 09:35:44;;;;;;;4.67;2.10;;;;;;;8.63;77.18;98742.88;4236365;28;20365;-69
2023/10/28 09:38:12;;;;;;;3.47;1.83;;;;;;;9.15;76.42;98742.22;4247506;28;20254;-69
2023/10/28 09:40:40;;;;;;;4.37;2.20;;;;;;;8.90;76.09;98746.09;4258928;28;20555;-71
2023/10/28 09:43:07;;;;;;;4.03;2.10;;;;;;;9.42;74.26;98739.13;4259016;28;23493;-71
2023/10/28 09:45:35;;;;;;;4.37;2.30;;;;;;;8.88;75.63;98751.66;4241211;28;20574;-70
2023/10/28 09:48:12;;;;;;;4.80;2.37;;;;;;;9.22;74.69;98747.72;4242845;28;20289;-70
2023/10/28 09:50:49;;;;;;;6.40;2.00;;;;;;;9.18;75.19;98749.09;4238867;28;21089;-72
2023/10/28 09:53:17;;;;;;;5.27;2.70;;;;;;;9.35;75.16;98744.41;4245683;28;21072;-72
2023/10/28 09:55:47;;;;;;;3.53;2.20;;;;;;;9.32;74.95;98756.41;4226711;28;20246;-71
2023/10/28 09:58:25;;;;;;;4.73;2.20;;;;;;;9.13;75.43;98751.53;4234042;28;22876;-71
2023/10/28 10:00:57;;;;;;;3.47;2.30;;;;;;;8.61;76.06;98759.22;4241892;28;20235;-70
2023/10/28 10:03:41;;;;;;;6.23;2.20;;;;;;;8.44;78.80;98754.91;4243739;28;20333;-69
2023/10/28 10:06:09;;;;;;;3.97;2.07;;;;;;;8.87;76.62;98758.91;4224632;28;20242;-71
2023/10/28 10:08:46;;;;;;;4.73;2.10;;;;;;;9.27;75.13;98764.22;4252913;28;22734;-68
2023/10/28 10:11:22;;;;;;;5.17;2.50;;;;;;;8.71;76.09;98759.84;4239583;28;21145;-70
2023/10/28 10:13:49;;;;;;;4.43;2.50;;;;;;;9.24;75.30;98759.19;4229701;28;23979;-69
2023/10/28 10:16:34;;;;;;;6.93;2.57;;;;;;;9.52;73.79;98775.69;4223704;28;20620;-70
2023/10/28 10:19:10;;;;;;;4.47;1.90;;;;;;;8.98;75.01;98770.31;4237234;28;21147;-72
2023/10/28 10:21:38;;;;;;;4.40;2.53;;;;;;;9.16;75.86;98770.03;4229866;28;21776;-68
2023/10/28 10:24:05;;;;;;;8.63;3.00;;;;;;;9.04;75.46;98770.47;4251073;28;20243;-69
2023/10/28 10:26:34;;;;;;;4.30;2.07;;;;;;;9.16;75.40;98768.19;4232250;28;20240;-70
2023/10/28 10:29:04;;;;;;;3.50;2.07;;;;;;;9.48;74.04;98766.25;4257059;28;20277;-70
2023/10/28 10:31:40;;;;;;;5.40;2.20;;;;;;;9.37;73.80;98758.59;4240954;28;20841;-69
2023/10/28 10:34:09;;;;;;;7.80;2.33;;;;;;;9.12;74.27;98780.34;4244940;28;20366;-70
2023/10/28 10:36:41;;;;;;;5.73;2.20;;;;;;;9.04;75.66;98781.25;4239623;28;22266;-70
2023/10/28 10:39:20;;;;;;;4.97;2.40;;;;;;;9.20;75.81;98776.78;4256579;28;26708;-70
2023/10/28 10:41:49;;;;;;;5.60;2.50;;;;;;;9.35;75.52;98774.97;4238036;28;20232;-72
2023/10/28 10:44:21;;;;;;;5.40;2.83;;;;;;;9.36;75.61;98786.59;4232472;28;20255;-71
2023/10/28 10:46:49;;;;;;;6.07;2.50;;;;;;;9.55;74.53;98784.44;4255282;28;20342;-70
2023/10/28 10:49:15;;;;;;;7.37;3.07;;;;;;;9.36;73.95;98781.19;4227637;28;20259;-70
2023/10/28 10:51:44;;;;;;;5.70;2.70;;;;;;;9.10;74.96;98776.97;4239565;28;22116;-71
2023/10/28 10:54:11;;;;;;;7.00;2.83;;;;;;;8.74;76.90;98777.53;4233600;28;20529;-71
2023/10/28 10:56:38;;;;;;;4.90;2.57;;;;;;;8.69;77.75;98774.53;4285815;28;21043;-71
2023/10/28 10:59:05;;;;;;;5.17;2.70;;;;;;;9.23;76.69;98789.06;4227180;28;20236;-70
2023/10/28 11:01:32;;;;;;;7.57;2.60;;;;;;;9.32;75.80;98775.31;4246471;28;20239;-71
2023/10/28 11:03:59;;;;;;;5.77;2.97;;;;;;;8.82;76.91;98787.47;4236158;28;20488;-71
2023/10/28 11:06:26;;;;;;;5.57;2.70;;;;;;;9.08;75.79;98776.34;4258588;28;20314;-69
2023/10/28 11:08:53;;;;;;;5.90;3.10;;;;;;;9.11;75.80;98781.38;4239019;28;22348;-73
2023/10/28 11:11:19;;;;;;;7.53;3.63;;;;;;;9.10;76.54;98786.97;4227253;28;20319;-72
2023/10/28 11:13:46;;;;;;;6.97;2.97;;;;;;;9.27;76.91;98796.63;4233257;28;22764;-70
2023/10/28 11:16:26;;;;;;;8.13;3.27;;;;;;;9.44;75.82;98786.53;4241999;28;20325;-71
2023/10/28 11:18:53;;;;;;;7.53;3.63;;;;;;;9.54;74.55;98786.28;4218171;28;20580;-74
2023/10/28 11:21:26;;;;;;;7.40;3.23;;;;;;;9.56;74.36;98792.34;4236778;28;21840;-70
2023/10/28 11:23:54;;;;;;;7.53;3.80;;;;;;;9.45;74.94;98784.66;4242284;28;20243;-69
2023/10/28 11:26:22;;;;;;;7.67;3.83;;;;;;;8.99;77.02;98796.31;4244961;28;20238;-71
2023/10/28 11:28:49;;;;;;;7.87;3.33;;;;;;;8.88;77.17;98786.75;4234700;28;20265;-70
2023/10/28 11:31:20;;;;;;;7.43;3.87;;;;;;;9.16;76.44;98788.94;4236524;28;20349;-74
2023/10/28 11:33:52;;;;;;;10.90;3.27;;;;;;;9.38;75.83;98789.13;4231888;28;20333;-72
2023/10/28 11:36:19;;;;;;;7.67;3.17;;;;;;;8.97;77.89;98793.78;4242737;28;20244;-74
2023/10/28 11:38:45;;;;;;;5.50;3.03;;;;;;;8.90;78.75;98787.41;4225453;28;23176;-73
2023/10/28 11:41:13;;;;;;;6.63;3.57;;;;;;;9.18;77.06;98800.41;4230564;28;20238;-70